Aérodrome :
LOGIN :

S'inscrire | Disclaimer

   EN    FR    IT 

 










Légende :    VFR   VFR Marginal   IFR   IFR Intensif   IFR Très Intensif
Visi : 
Plafond : 
>= 8 km
>= 3000ft
5 à 8 km
1000 à 3000 ft
1500m à 5 km
500 à 1000 ft
800 à 1500m
200 à 500 ft
< 800m
< 200 ft
Symboles :   Orages  Brouillard  Fortes neiges  Fortes précipitations  Vent > 20 kt
SIGMETs :   Divers  Orages  Givrage  Turbulence  Onde Orograph.  Cendres Volcan.







- Altitude de l'aérodrome : 26 ft


ETNT - Wittmundhaven AB

DERNIER METAR :
  • 211820Z 22005KT 9999 SCT026 SCT340 13/09 Q1025 BLU+

METARs EXPIRÉS :
  • 211720Z 21006KT 9999 BKN026 BKN340 13/09 Q1025 BLU
  • 211620Z 21007KT 9999 SCT026 BKN340 14/09 Q1025 BLU+

TAF TAF ETNT
Valide du 21 à 17h jusqu'au 22 à 02h UTC


211620Z 2117/2202 22010KT 9999 NSW BKN030 BKN300
BECMG 2122/2200 26006KT 7000 -RA FEW012 BKN020
TEMPO 2123/2202 29010KT 3000 -RADZ BKN007 BKN015 BY ETGL
Pas de NOTAMs connus pour ce terrain.



MET'MAP, la Météo Aéronautique d'un coup d'oeil ! - Copyright ORBIFLY Décembre 2007 - Disclaimer

ORBIFLY MET'MAP TEAM :

Programmation & Développement : Alexandra Zaïnal
Conception & Développement : Baudouin d'Aumeries
Co-Programmation & Développement : Marc-Olivier Méhu
Soutien technique & logistique : Manuel Goepfert

Contact : metmap@orbifly.com




SOURCES & CREDITS :

   NOAA